Time;durP1;ratioP1;P1;durP2;ratioP2;P2;SDS_P1;SDS_P2;PMS_P1;PMS_P2;Temp;Humidity;BMP_temperature;BMP_pressure;BME280_temperature;BME280_humidity;BME280_pressure;Samples;Min_cycle;Max_cycle;Signal;HPM_P1;HPM_P2
2023/08/01 00:00:11;;;;;;;5.65;1.83;;;18.00;99.90;;;;;;5057896;28;20047;-67
2023/08/01 00:02:38;;;;;;;5.15;1.80;;;18.10;99.90;;;;;;5057280;28;20021;-67
2023/08/01 00:05:04;;;;;;;2.72;2.00;;;18.00;99.90;;;;;;5057511;28;20108;-68
2023/08/01 00:07:29;;;;;;;3.63;1.73;;;18.00;99.90;;;;;;5057540;28;20120;-68
2023/08/01 00:09:55;;;;;;;5.05;1.92;;;18.00;99.90;;;;;;5057742;28;20061;-67
2023/08/01 00:12:21;;;;;;;4.68;1.75;;;18.00;99.90;;;;;;5057190;28;20063;-67
2023/08/01 00:14:47;;;;;;;6.43;2.20;;;17.90;99.90;;;;;;5057267;28;20024;-67
2023/08/01 00:17:12;;;;;;;5.28;2.08;;;17.90;99.90;;;;;;5057059;28;20075;-67
2023/08/01 00:19:38;;;;;;;7.07;1.70;;;17.80;99.90;;;;;;5058002;28;20020;-67
2023/08/01 00:22:03;;;;;;;2.55;1.20;;;17.80;99.90;;;;;;5057108;28;20033;-67
2023/08/01 00:24:29;;;;;;;1.83;1.30;;;17.70;99.90;;;;;;5057904;28;20029;-67
2023/08/01 00:26:55;;;;;;;2.45;1.15;;;17.70;99.90;;;;;;5057570;28;20059;-68
2023/08/01 00:29:23;;;;;;;3.88;1.63;;;17.60;99.90;;;;;;5057152;28;20025;-67
2023/08/01 00:31:49;;;;;;;2.40;1.33;;;17.60;99.90;;;;;;5057453;28;20032;-67
2023/08/01 00:34:14;;;;;;;3.33;1.50;;;17.60;99.90;;;;;;5056901;28;20017;-67
2023/08/01 00:36:40;;;;;;;1.58;0.85;;;17.50;99.90;;;;;;5057085;28;20036;-67
2023/08/01 00:39:05;;;;;;;2.22;1.20;;;17.50;99.90;;;;;;5056941;28;20111;-67
2023/08/01 00:41:31;;;;;;;1.85;0.90;;;17.40;99.90;;;;;;5056998;28;20068;-67
2023/08/01 00:43:56;;;;;;;2.10;1.10;;;17.30;99.90;;;;;;5056876;28;20029;-69
2023/08/01 00:46:22;;;;;;;2.90;1.05;;;17.20;99.90;;;;;;5056885;28;20025;-70
2023/08/01 00:48:48;;;;;;;2.13;0.95;;;17.30;99.90;;;;;;5056722;28;20021;-70
2023/08/01 00:51:17;;;;;;;1.15;1.00;;;17.30;99.90;;;;;;5056876;28;20028;-69
2023/08/01 00:53:45;;;;;;;2.65;0.90;;;17.40;99.90;;;;;;5057022;28;20028;-70
2023/08/01 00:56:10;;;;;;;1.90;1.38;;;17.50;99.90;;;;;;5056584;28;20032;-70
2023/08/01 00:58:36;;;;;;;1.73;0.88;;;17.40;99.90;;;;;;5057294;28;20025;-70
2023/08/01 01:01:03;;;;;;;1.98;1.02;;;17.30;99.90;;;;;;5056524;28;20062;-69
2023/08/01 01:03:29;;;;;;;3.30;0.80;;;17.40;99.90;;;;;;5057246;28;20029;-70
2023/08/01 01:06:15;;;;;;;2.80;1.00;;;17.30;99.90;;;;;;5056381;28;20029;-70
2023/08/01 01:08:41;;;;;;;5.30;1.17;;;17.30;99.90;;;;;;5057178;28;20031;-71
2023/08/01 01:11:07;;;;;;;1.88;1.20;;;17.10;99.90;;;;;;5056499;28;20025;-71
2023/08/01 01:13:33;;;;;;;3.63;1.40;;;16.90;99.90;;;;;;5057508;28;20067;-70
2023/08/01 01:15:59;;;;;;;2.47;1.23;;;16.80;99.90;;;;;;5056313;28;20033;-71
2023/08/01 01:18:24;;;;;;;2.08;1.50;;;16.80;99.90;;;;;;5056122;28;20033;-71
2023/08/01 01:20:50;;;;;;;3.00;1.70;;;16.80;99.90;;;;;;5056470;28;20021;-71
2023/08/01 01:23:17;;;;;;;4.03;1.40;;;16.90;99.90;;;;;;5056693;28;20025;-70
2023/08/01 01:25:43;;;;;;;1.58;1.17;;;17.00;99.90;;;;;;5056520;28;20044;-71
2023/08/01 01:28:11;;;;;;;2.33;1.02;;;17.00;99.90;;;;;;5056071;28;20028;-70
2023/08/01 01:30:37;;;;;;;1.30;1.00;;;17.00;99.90;;;;;;5055900;28;20025;-71
2023/08/01 01:33:03;;;;;;;1.08;0.80;;;17.00;99.90;;;;;;5056219;28;20048;-69
2023/08/01 01:35:29;;;;;;;2.00;1.05;;;17.00;99.90;;;;;;5055962;28;20028;-68
2023/08/01 01:37:55;;;;;;;2.20;1.20;;;17.00;99.90;;;;;;5056379;28;20043;-69
2023/08/01 01:40:20;;;;;;;2.10;0.70;;;17.00;99.90;;;;;;5056938;28;20021;-68
2023/08/01 01:42:46;;;;;;;1.70;0.95;;;17.10;99.90;;;;;;5056208;28;20024;-69
2023/08/01 01:45:11;;;;;;;1.88;0.95;;;17.10;99.90;;;;;;5056293;28;20025;-68
2023/08/01 01:47:37;;;;;;;1.38;0.90;;;17.10;99.90;;;;;;5056199;28;20025;-68
2023/08/01 01:50:03;;;;;;;2.45;0.70;;;17.10;99.90;;;;;;5056229;28;20051;-68
2023/08/01 01:52:29;;;;;;;2.05;0.90;;;17.10;99.90;;;;;;5056130;28;20064;-68
2023/08/01 01:54:54;;;;;;;1.40;0.77;;;17.10;99.90;;;;;;5056009;28;20017;-68
2023/08/01 01:57:20;;;;;;;1.73;0.80;;;17.10;99.90;;;;;;5056090;28;20028;-68
2023/08/01 01:59:45;;;;;;;2.58;1.05;;;17.10;99.90;;;;;;5055661;28;20017;-68
2023/08/01 02:02:11;;;;;;;0.82;0.60;;;17.10;99.90;;;;;;5055800;28;20021;-68
2023/08/01 02:04:36;;;;;;;1.35;0.60;;;17.10;99.90;;;;;;5056040;28;20021;-68
2023/08/01 02:07:02;;;;;;;1.77;0.90;;;17.10;99.90;;;;;;5056664;28;20032;-68
2023/08/01 02:09:28;;;;;;;0.88;0.70;;;17.10;99.90;;;;;;5056696;28;20029;-68
2023/08/01 02:11:54;;;;;;;1.00;0.80;;;17.00;99.90;;;;;;5056604;28;20035;-68
2023/08/01 02:14:19;;;;;;;1.45;0.98;;;17.00;99.90;;;;;;5055718;28;20024;-68
2023/08/01 02:16:45;;;;;;;1.23;1.10;;;17.00;99.90;;;;;;5055855;28;20025;-68
2023/08/01 02:19:10;;;;;;;2.60;0.93;;;17.10;99.90;;;;;;5055872;28;20056;-68
2023/08/01 02:21:36;;;;;;;1.15;0.60;;;16.90;99.90;;;;;;5055631;28;20030;-68
2023/08/01 02:24:02;;;;;;;2.78;0.80;;;16.80;99.90;;;;;;5055879;28;20108;-68
2023/08/01 02:26:29;;;;;;;1.73;0.93;;;16.90;99.90;;;;;;5056269;28;20031;-68
2023/08/01 02:28:55;;;;;;;1.95;0.90;;;17.00;99.90;;;;;;5060038;28;20025;-68
2023/08/01 02:31:20;;;;;;;4.57;1.35;;;17.00;99.90;;;;;;5059520;28;20025;-68
2023/08/01 02:33:46;;;;;;;2.13;0.98;;;16.80;99.90;;;;;;5059638;28;20052;-68
2023/08/01 02:36:11;;;;;;;3.72;1.30;;;16.70;99.90;;;;;;5059048;28;20025;-68
2023/08/01 02:38:37;;;;;;;3.13;0.95;;;16.60;99.90;;;;;;5059186;28;20028;-68
2023/08/01 02:41:02;;;;;;;2.05;1.23;;;16.70;99.90;;;;;;5059595;28;20017;-68
2023/08/01 02:43:28;;;;;;;3.15;1.60;;;16.60;99.90;;;;;;5060208;28;20021;-69
2023/08/01 02:45:53;;;;;;;2.45;0.95;;;16.70;99.90;;;;;;5059287;28;20166;-68
2023/08/01 02:48:19;;;;;;;1.85;1.20;;;16.80;99.90;;;;;;5059259;28;20029;-69
2023/08/01 02:50:45;;;;;;;1.63;1.00;;;16.80;99.90;;;;;;5059244;28;20017;-68
2023/08/01 02:53:11;;;;;;;1.92;1.15;;;16.80;99.90;;;;;;5059215;28;20025;-68
2023/08/01 02:55:37;;;;;;;4.57;0.98;;;16.90;99.90;;;;;;5059173;28;20087;-68
2023/08/01 02:58:02;;;;;;;2.95;1.25;;;17.00;99.90;;;;;;5058723;28;20049;-68
2023/08/01 03:00:28;;;;;;;3.95;1.42;;;17.00;99.90;;;;;;5059126;28;20025;-68
2023/08/01 03:02:53;;;;;;;2.85;1.30;;;17.00;99.90;;;;;;5059038;28;20029;-68
2023/08/01 03:05:19;;;;;;;1.63;1.02;;;17.10;99.90;;;;;;5059512;28;20025;-67
2023/08/01 03:07:45;;;;;;;6.35;1.58;;;17.10;99.90;;;;;;5058772;28;20017;-67
2023/08/01 03:10:11;;;;;;;5.63;1.65;;;17.10;99.90;;;;;;5059107;28;20025;-67
2023/08/01 03:12:37;;;;;;;4.15;1.60;;;17.10;99.90;;;;;;5059535;28;20031;-68
2023/08/01 03:15:03;;;;;;;3.83;1.70;;;17.20;99.90;;;;;;5058421;28;20024;-67
2023/08/01 03:17:28;;;;;;;1.92;1.27;;;17.10;99.90;;;;;;5058459;28;20029;-67
2023/08/01 03:19:54;;;;;;;3.17;1.50;;;17.00;99.90;;;;;;5058682;28;20025;-67
2023/08/01 03:22:19;;;;;;;8.02;2.00;;;16.90;99.90;;;;;;5058624;28;20036;-68
2023/08/01 03:24:45;;;;;;;2.33;1.20;;;16.80;99.90;;;;;;5058864;28;20075;-68
2023/08/01 03:27:11;;;;;;;4.93;1.73;;;16.80;99.90;;;;;;5058253;28;20114;-68
2023/08/01 03:29:36;;;;;;;2.80;1.55;;;16.90;99.90;;;;;;5058498;28;20083;-68
2023/08/01 03:32:02;;;;;;;5.63;1.52;;;16.90;99.90;;;;;;5058045;28;20025;-68
2023/08/01 03:34:28;;;;;;;2.83;1.15;;;16.90;99.90;;;;;;5058346;28;20021;-68
2023/08/01 03:36:53;;;;;;;6.85;1.63;;;17.00;99.90;;;;;;5058411;28;20028;-68
2023/08/01 03:39:20;;;;;;;2.22;1.60;;;17.10;99.90;;;;;;5057804;28;20021;-68
2023/08/01 03:41:45;;;;;;;5.43;1.50;;;17.10;99.90;;;;;;5058413;28;20021;-68
2023/08/01 03:44:11;;;;;;;3.22;1.48;;;17.00;99.90;;;;;;5058204;28;20111;-68
2023/08/01 03:46:36;;;;;;;2.22;1.45;;;17.10;99.90;;;;;;5058643;28;20138;-68
2023/08/01 03:49:02;;;;;;;2.00;1.25;;;17.10;99.90;;;;;;5058277;28;20048;-68
2023/08/01 03:51:27;;;;;;;5.72;1.65;;;17.10;99.90;;;;;;5058507;28;20040;-68
2023/08/01 03:53:53;;;;;;;5.05;1.63;;;17.20;99.90;;;;;;5058177;28;20020;-68
2023/08/01 03:56:18;;;;;;;2.28;1.55;;;17.20;99.90;;;;;;5058592;28;20032;-69
2023/08/01 03:58:44;;;;;;;2.10;1.52;;;17.20;99.90;;;;;;5057597;28;20027;-70
2023/08/01 04:01:09;;;;;;;4.15;1.63;;;17.20;99.90;;;;;;5058081;28;20029;-69
2023/08/01 04:03:35;;;;;;;4.15;1.40;;;17.20;99.90;;;;;;5058131;28;20024;-69
2023/08/01 04:06:00;;;;;;;1.35;0.93;;;17.20;99.90;;;;;;5057633;28;20029;-69
2023/08/01 04:08:26;;;;;;;1.17;0.90;;;17.20;99.90;;;;;;5057828;28;20049;-69
2023/08/01 04:10:51;;;;;;;2.80;0.77;;;17.20;99.90;;;;;;5057759;28;20036;-69
2023/08/01 04:13:17;;;;;;;4.25;1.13;;;17.30;99.90;;;;;;5057555;28;20029;-69
2023/08/01 04:15:43;;;;;;;6.22;1.20;;;17.30;99.90;;;;;;5057594;28;20028;-69
2023/08/01 04:18:08;;;;;;;1.30;0.90;;;17.30;99.90;;;;;;5057563;28;20033;-69
2023/08/01 04:20:34;;;;;;;0.77;0.77;;;17.30;99.90;;;;;;5057256;28;20037;-70
2023/08/01 04:22:59;;;;;;;2.47;0.90;;;17.40;99.90;;;;;;5057448;28;20028;-70
2023/08/01 04:25:26;;;;;;;0.90;0.60;;;17.40;99.90;;;;;;5057082;28;20021;-70
2023/08/01 04:27:53;;;;;;;3.08;1.00;;;17.40;99.90;;;;;;5057424;28;20029;-70
2023/08/01 04:30:18;;;;;;;3.17;0.82;;;17.40;99.90;;;;;;5057059;28;20028;-69
2023/08/01 04:32:44;;;;;;;2.58;0.85;;;17.30;99.90;;;;;;5057147;28;20021;-70
2023/08/01 04:35:09;;;;;;;0.75;0.65;;;17.30;99.90;;;;;;5057590;28;20112;-67
2023/08/01 04:37:35;;;;;;;0.52;0.52;;;17.30;99.90;;;;;;5057158;28;20048;-67
2023/08/01 04:40:01;;;;;;;0.95;0.73;;;17.30;99.90;;;;;;5056945;28;20104;-67
2023/08/01 04:42:27;;;;;;;1.92;0.68;;;17.30;99.90;;;;;;5057673;28;20056;-67
2023/08/01 04:44:52;;;;;;;2.85;1.30;;;17.20;99.90;;;;;;5057093;28;20032;-67
2023/08/01 04:47:18;;;;;;;0.77;0.50;;;17.20;99.90;;;;;;5056812;28;20021;-68
2023/08/01 04:49:44;;;;;;;1.08;0.60;;;17.20;99.90;;;;;;5056160;28;20060;-70
2023/08/01 04:52:10;;;;;;;1.38;0.60;;;17.20;99.90;;;;;;5056850;28;20064;-70
2023/08/01 04:54:35;;;;;;;5.78;0.85;;;17.20;99.90;;;;;;5057026;28;20108;-70
2023/08/01 04:57:01;;;;;;;0.68;0.40;;;17.20;99.90;;;;;;5056904;28;20021;-71
2023/08/01 04:59:26;;;;;;;0.75;0.52;;;17.10;99.90;;;;;;5056767;28;20021;-72
2023/08/01 05:01:52;;;;;;;1.05;0.50;;;17.10;99.90;;;;;;5056923;28;20044;-72
2023/08/01 05:04:17;;;;;;;1.27;0.80;;;17.10;99.90;;;;;;5056684;28;20053;-72
2023/08/01 05:06:43;;;;;;;0.40;0.40;;;17.20;99.90;;;;;;5057175;28;20032;-71
2023/08/01 05:09:08;;;;;;;0.82;0.65;;;17.20;99.90;;;;;;5056696;28;20025;-70
2023/08/01 05:11:34;;;;;;;1.10;0.80;;;17.20;99.90;;;;;;5056324;28;20035;-70
2023/08/01 05:13:59;;;;;;;1.33;1.10;;;17.30;99.90;;;;;;5056837;28;20025;-70
2023/08/01 05:16:25;;;;;;;1.98;0.80;;;17.30;99.90;;;;;;5056147;28;20047;-70
2023/08/01 05:18:51;;;;;;;3.22;0.90;;;17.30;99.90;;;;;;5044722;22;20046;-69
2023/08/01 05:21:16;;;;;;;3.53;1.20;;;17.30;99.90;;;;;;5016415;28;20045;-72
2023/08/01 05:23:42;;;;;;;2.22;0.70;;;17.30;99.90;;;;;;5016590;28;20030;-69
2023/08/01 05:26:07;;;;;;;1.58;0.70;;;17.40;99.90;;;;;;5016477;28;20030;-69
2023/08/01 05:28:32;;;;;;;1.05;0.85;;;17.30;99.90;;;;;;5016349;28;20034;-69
2023/08/01 05:30:58;;;;;;;1.75;1.00;;;17.40;99.90;;;;;;5016191;28;20029;-69
2023/08/01 05:33:23;;;;;;;3.10;1.25;;;17.40;99.90;;;;;;5016413;28;20022;-69
2023/08/01 05:35:50;;;;;;;0.75;0.70;;;17.50;99.90;;;;;;5016579;28;20037;-73
2023/08/01 05:38:16;;;;;;;3.50;0.60;;;17.50;99.90;;;;;;5016968;28;20022;-73
2023/08/01 05:40:41;;;;;;;1.60;0.80;;;17.50;99.90;;;;;;5016260;28;20040;-73
2023/08/01 05:43:08;;;;;;;2.50;0.68;;;17.40;99.90;;;;;;5016562;28;20029;-70
2023/08/01 05:45:34;;;;;;;2.95;0.50;;;17.30;99.90;;;;;;5016334;28;20026;-70
2023/08/01 05:48:00;;;;;;;0.40;0.40;;;17.30;99.90;;;;;;5016957;28;20030;-69
2023/08/01 05:50:26;;;;;;;1.75;0.63;;;17.30;99.90;;;;;;5016124;28;20034;-69
2023/08/01 05:52:52;;;;;;;1.40;1.30;;;17.30;99.90;;;;;;5016208;28;20026;-68
2023/08/01 05:55:18;;;;;;;1.75;1.23;;;17.30;99.90;;;;;;5016095;28;20124;-69
2023/08/01 05:57:44;;;;;;;1.83;1.17;;;17.20;99.90;;;;;;5016325;28;20124;-69
2023/08/01 06:00:10;;;;;;;1.20;1.10;;;17.10;99.90;;;;;;5016629;28;20022;-68
2023/08/01 06:02:36;;;;;;;3.10;0.90;;;17.10;99.90;;;;;;5018572;28;20026;-69
2023/08/01 06:05:01;;;;;;;1.52;0.73;;;17.10;99.90;;;;;;5020395;28;20022;-73
2023/08/01 06:07:27;;;;;;;1.00;0.80;;;17.10;99.90;;;;;;5020844;28;20026;-73
2023/08/01 06:09:52;;;;;;;1.65;0.70;;;17.00;99.90;;;;;;5020029;28;20066;-73
2023/08/01 06:12:18;;;;;;;1.83;0.90;;;17.00;99.90;;;;;;5019795;28;20072;-73
2023/08/01 06:14:44;;;;;;;3.78;1.15;;;16.90;99.90;;;;;;5019845;28;20025;-69
2023/08/01 06:17:10;;;;;;;1.50;1.00;;;16.90;99.90;;;;;;5019652;28;20029;-69
2023/08/01 06:19:35;;;;;;;2.25;1.30;;;16.90;99.90;;;;;;5020486;28;20022;-69
2023/08/01 06:22:01;;;;;;;2.03;1.48;;;16.90;99.90;;;;;;5019970;28;20053;-72
2023/08/01 06:24:27;;;;;;;2.25;1.27;;;16.90;99.90;;;;;;5020481;28;20030;-72
2023/08/01 06:26:52;;;;;;;2.70;1.33;;;16.90;99.90;;;;;;5019879;28;20034;-73
2023/08/01 06:29:18;;;;;;;6.00;2.38;;;16.90;99.90;;;;;;5019642;28;20109;-72
2023/08/01 06:31:44;;;;;;;4.70;2.28;;;16.90;99.90;;;;;;5019625;28;20071;-72
2023/08/01 06:34:09;;;;;;;5.00;2.20;;;16.90;99.90;;;;;;5019537;28;20029;-70
2023/08/01 06:36:35;;;;;;;4.30;2.20;;;16.90;99.90;;;;;;5019731;28;20022;-70
2023/08/01 06:39:00;;;;;;;2.22;1.90;;;16.90;99.90;;;;;;5020291;28;20025;-70
2023/08/01 06:41:26;;;;;;;7.95;3.28;;;17.00;99.90;;;;;;5019458;28;20125;-70
2023/08/01 06:43:51;;;;;;;4.28;2.90;;;16.90;99.90;;;;;;5019359;28;20022;-72
2023/08/01 06:46:17;;;;;;;4.90;3.13;;;16.90;99.90;;;;;;5019340;28;20080;-72
2023/08/01 06:48:43;;;;;;;6.13;3.35;;;16.90;99.90;;;;;;5019953;28;20053;-72
2023/08/01 06:51:08;;;;;;;6.38;3.85;;;16.90;99.90;;;;;;5020172;28;20094;-72
2023/08/01 06:53:34;;;;;;;5.53;4.00;;;16.90;99.90;;;;;;5019952;28;20041;-73
2023/08/01 06:55:59;;;;;;;7.45;4.72;;;16.90;99.90;;;;;;5019354;28;20045;-73
2023/08/01 06:58:25;;;;;;;6.30;4.53;;;16.90;99.90;;;;;;5019283;28;20049;-72
2023/08/01 07:00:50;;;;;;;9.52;5.85;;;16.90;99.90;;;;;;5018987;28;20048;-72
2023/08/01 07:03:16;;;;;;;7.82;5.45;;;16.80;99.90;;;;;;5019153;28;20028;-72
2023/08/01 07:05:42;;;;;;;8.88;5.63;;;16.80;99.90;;;;;;5018896;28;20018;-72
2023/08/01 07:08:07;;;;;;;9.63;6.15;;;16.70;99.90;;;;;;5019661;28;20064;-72
2023/08/01 07:10:36;;;;;;;8.75;5.68;;;16.80;99.90;;;;;;5018841;28;20029;-72
2023/08/01 07:13:04;;;;;;;7.57;4.80;;;16.80;99.90;;;;;;5019340;28;20022;-72
2023/08/01 07:15:30;;;;;;;7.93;5.07;;;16.80;99.90;;;;;;5019865;28;20025;-72
2023/08/01 07:17:56;;;;;;;7.72;4.85;;;16.80;99.90;;;;;;5018630;28;20026;-73
2023/08/01 07:20:21;;;;;;;8.43;4.80;;;16.90;99.90;;;;;;5019213;28;20014;-71
2023/08/01 07:22:46;;;;;;;7.03;4.05;;;16.90;99.90;;;;;;5019445;28;20025;-71
2023/08/01 07:25:12;;;;;;;6.70;4.35;;;16.90;99.90;;;;;;5018559;28;20036;-72
2023/08/01 07:27:38;;;;;;;6.95;4.85;;;16.80;99.90;;;;;;5018624;28;20072;-73
2023/08/01 07:30:05;;;;;;;7.72;4.40;;;16.80;99.90;;;;;;5018454;28;20025;-71
2023/08/01 07:32:30;;;;;;;11.13;4.80;;;16.80;99.90;;;;;;5018914;28;20033;-72
2023/08/01 07:34:56;;;;;;;7.15;4.50;;;16.80;99.90;;;;;;5018311;28;20028;-72
2023/08/01 07:37:21;;;;;;;4.07;2.70;;;16.90;99.90;;;;;;5019164;28;20044;-71
2023/08/01 07:39:47;;;;;;;8.55;3.30;;;16.90;99.90;;;;;;5018432;28;20022;-73
2023/08/01 07:42:12;;;;;;;6.82;3.20;;;16.90;99.90;;;;;;5018246;28;20033;-73
2023/08/01 07:44:38;;;;;;;5.97;3.42;;;17.00;99.90;;;;;;5018505;28;20033;-71
2023/08/01 07:47:03;;;;;;;4.53;3.58;;;17.00;99.90;;;;;;5018348;28;20033;-71
2023/08/01 07:49:29;;;;;;;5.78;2.90;;;17.00;99.90;;;;;;5018221;28;20026;-72
2023/08/01 07:51:54;;;;;;;3.95;2.45;;;16.90;99.90;;;;;;5018913;28;20030;-72
2023/08/01 07:54:20;;;;;;;3.45;2.28;;;16.80;99.90;;;;;;5018772;28;20026;-73
2023/08/01 07:56:48;;;;;;;2.97;2.63;;;16.90;99.90;;;;;;5018343;28;20074;-72
2023/08/01 07:59:14;;;;;;;6.28;2.63;;;17.00;99.90;;;;;;5018011;28;20025;-72
2023/08/01 08:01:40;;;;;;;7.70;2.25;;;17.10;99.90;;;;;;5018078;28;20021;-71
2023/08/01 08:04:05;;;;;;;6.63;2.50;;;17.20;99.90;;;;;;5018741;28;20056;-71
2023/08/01 08:06:31;;;;;;;2.95;2.10;;;17.40;99.90;;;;;;5017753;28;20185;-72
2023/08/01 08:08:57;;;;;;;4.18;2.42;;;17.40;99.90;;;;;;5018006;28;20026;-71
2023/08/01 08:11:23;;;;;;;5.40;1.83;;;17.50;99.90;;;;;;5018485;28;20029;-71
2023/08/01 08:13:48;;;;;;;5.25;2.25;;;17.50;99.90;;;;;;5017744;28;20057;-71
2023/08/01 08:16:14;;;;;;;6.18;2.33;;;17.60;99.90;;;;;;5018049;28;20067;-71
2023/08/01 08:18:40;;;;;;;5.68;2.10;;;17.80;99.90;;;;;;5017902;28;20030;-71
2023/08/01 08:21:05;;;;;;;5.72;2.20;;;17.90;99.90;;;;;;5018441;28;20041;-71
2023/08/01 08:23:31;;;;;;;5.72;2.10;;;18.00;99.90;;;;;;5018371;28;20029;-71
2023/08/01 08:25:56;;;;;;;3.25;2.10;;;18.10;99.90;;;;;;5018012;28;20030;-71
2023/08/01 08:28:29;;;;;;;3.78;2.03;;;18.00;99.90;;;;;;5017632;28;20030;-72
2023/08/01 08:30:55;;;;;;;5.03;2.28;;;18.10;99.90;;;;;;5018193;28;20049;-71
2023/08/01 08:33:21;;;;;;;5.82;2.58;;;18.20;99.90;;;;;;5017454;28;20021;-72
2023/08/01 08:35:47;;;;;;;2.38;1.88;;;18.20;99.90;;;;;;5018212;28;20022;-71
2023/08/01 08:38:12;;;;;;;6.03;2.22;;;18.30;99.90;;;;;;5017660;28;20022;-71
2023/08/01 08:40:43;;;;;;;4.30;1.70;;;18.40;99.90;;;;;;5017096;28;20022;-71
2023/08/01 08:43:09;;;;;;;4.90;1.63;;;18.50;99.90;;;;;;5017104;28;20022;-71
2023/08/01 08:45:36;;;;;;;3.70;1.95;;;18.60;99.90;;;;;;5018677;28;20014;-71
2023/08/01 08:48:08;;;;;;;3.92;1.63;;;18.70;99.90;;;;;;5017442;28;20026;-71
2023/08/01 08:50:35;;;;;;;6.22;1.95;;;18.90;99.90;;;;;;5017514;28;20029;-71
2023/08/01 08:53:02;;;;;;;3.03;1.65;;;19.00;99.90;;;;;;5017036;28;20022;-72
2023/08/01 08:55:28;;;;;;;8.35;2.40;;;19.00;99.90;;;;;;5017882;28;20030;-71
2023/08/01 08:57:55;;;;;;;4.80;1.88;;;19.30;99.90;;;;;;5016700;28;20022;-71
2023/08/01 09:00:21;;;;;;;3.97;1.83;;;19.40;99.90;;;;;;5017605;28;20060;-71
2023/08/01 09:02:47;;;;;;;2.22;1.50;;;19.50;99.90;;;;;;5016929;28;20037;-71
2023/08/01 09:05:12;;;;;;;3.35;1.73;;;19.70;99.90;;;;;;5017700;28;20030;-71
2023/08/01 09:07:42;;;;;;;4.18;1.83;;;19.80;99.90;;;;;;5016654;28;20033;-72
2023/08/01 09:10:08;;;;;;;9.57;2.13;;;19.90;99.90;;;;;;5017976;28;20030;-71
2023/08/01 09:12:35;;;;;;;6.22;2.00;;;19.80;99.90;;;;;;5017454;28;20049;-71
2023/08/01 09:15:01;;;;;;;4.88;1.85;;;19.70;99.90;;;;;;5016764;28;20049;-72
2023/08/01 09:17:26;;;;;;;6.07;2.80;;;19.80;99.90;;;;;;5017506;28;20030;-71
2023/08/01 09:20:05;;;;;;;8.30;2.83;;;19.80;99.90;;;;;;5016768;28;20026;-71
2023/08/01 09:22:42;;;;;;;6.38;2.00;;;19.90;99.90;;;;;;5017816;28;20025;-69
2023/08/01 09:25:07;;;;;;;5.10;1.75;;;19.90;99.90;;;;;;5016477;28;20026;-69
2023/08/01 09:27:33;;;;;;;5.53;1.83;;;19.80;99.90;;;;;;5016381;28;20030;-69
2023/08/01 09:30:28;;;;;;;5.97;1.92;;;20.00;99.90;;;;;;5017345;28;20075;-69
2023/08/01 09:32:54;;;;;;;2.35;1.63;;;19.90;99.90;;;;;;5014960;28;20124;-69
2023/08/01 09:35:21;;;;;;;3.75;2.03;;;20.00;99.90;;;;;;5016539;28;20025;-69
2023/08/01 09:37:47;;;;;;;8.73;2.58;;;19.90;99.90;;;;;;5016206;28;20026;-69
2023/08/01 09:40:14;;;;;;;4.43;2.00;;;19.90;99.90;;;;;;5016728;28;20076;-69
2023/08/01 09:42:45;;;;;;;4.03;2.13;;;19.70;99.90;;;;;;5017056;28;20099;-69
2023/08/01 09:45:15;;;;;;;2.78;1.50;;;19.50;99.90;;;;;;5016653;28;20116;-69
2023/08/01 09:47:41;;;;;;;6.93;1.85;;;19.10;99.90;;;;;;5017213;28;20112;-69
2023/08/01 09:50:08;;;;;;;4.68;1.95;;;18.80;99.90;;;;;;5016196;28;20057;-69
2023/08/01 09:52:34;;;;;;;4.50;2.03;;;18.60;99.90;;;;;;5016078;28;20030;-69
2023/08/01 09:55:00;;;;;;;7.32;2.35;;;18.50;99.90;;;;;;5016997;28;20022;-69
2023/08/01 09:57:29;;;;;;;6.18;2.75;;;18.30;99.90;;;;;;5016125;28;20037;-69
2023/08/01 09:59:59;;;;;;;4.53;1.75;;;18.20;99.90;;;;;;5016117;28;20024;-69
2023/08/01 10:02:28;;;;;;;3.45;1.95;;;18.20;99.90;;;;;;5016470;28;20030;-69
2023/08/01 10:04:57;;;;;;;3.15;1.45;;;18.20;99.90;;;;;;5015967;28;20029;-69
2023/08/01 10:07:26;;;;;;;3.95;2.33;;;18.40;99.90;;;;;;5015960;28;20022;-69
2023/08/01 10:09:54;;;;;;;3.53;1.95;;;18.70;99.90;;;;;;5015935;28;20093;-69
2023/08/01 10:12:20;;;;;;;2.30;1.45;;;18.90;99.90;;;;;;5015944;28;20026;-69
2023/08/01 10:14:46;;;;;;;2.78;1.38;;;19.00;99.90;;;;;;5016159;28;20026;-69
2023/08/01 10:17:14;;;;;;;1.88;1.33;;;19.10;99.90;;;;;;5015751;28;20026;-69
2023/08/01 10:19:41;;;;;;;1.52;1.13;;;19.30;99.90;;;;;;5015962;28;20022;-69
2023/08/01 10:22:07;;;;;;;4.82;1.80;;;19.60;99.90;;;;;;5015831;28;20033;-69
2023/08/01 10:24:33;;;;;;;4.75;1.40;;;19.80;99.90;;;;;;5015814;28;20026;-69
2023/08/01 10:27:15;;;;;;;6.38;2.50;;;19.90;99.90;;;;;;5016178;28;20026;-69
2023/08/01 10:29:41;;;;;;;;;;;19.80;99.90;;;;;;5016229;28;20025;-69
2023/08/01 10:32:07;;;;;;;3.03;1.60;;;19.60;99.90;;;;;;5015850;28;20018;-69
2023/08/01 10:34:33;;;;;;;4.05;1.85;;;19.50;99.90;;;;;;5016105;28;20025;-69
2023/08/01 10:36:59;;;;;;;2.35;1.90;;;19.40;99.90;;;;;;5016547;28;20105;-69
2023/08/01 10:39:26;;;;;;;3.08;1.33;;;19.30;99.90;;;;;;5016823;28;20018;-69
2023/08/01 10:42:03;;;;;;;2.85;1.38;;;19.40;99.90;;;;;;5015965;28;20080;-69
2023/08/01 10:44:31;;;;;;;2.35;1.30;;;19.90;99.90;;;;;;5016225;28;20026;-69
2023/08/01 10:47:01;;;;;;;3.72;1.50;;;20.50;99.90;;;;;;5015637;28;20029;-69
2023/08/01 10:49:33;;;;;;;4.93;1.77;;;20.80;99.90;;;;;;5020094;28;20067;-69
2023/08/01 10:51:58;;;;;;;;;;;20.80;99.90;;;;;;5020682;28;20034;-69
2023/08/01 10:54:25;;;;;;;4.60;1.70;;;20.60;99.90;;;;;;5019578;28;19911;-69
2023/08/01 10:56:58;;;;;;;7.40;2.05;;;20.30;99.90;;;;;;5020160;28;20018;-69
2023/08/01 10:59:24;;;;;;;5.25;1.60;;;20.00;99.90;;;;;;5019155;28;20032;-69
2023/08/01 11:01:51;;;;;;;3.22;2.17;;;19.80;99.90;;;;;;5019122;28;20022;-69
2023/08/01 11:04:21;;;;;;;3.10;2.05;;;19.50;99.90;;;;;;5020199;28;20022;-69
2023/08/01 11:06:49;;;;;;;3.72;1.80;;;19.30;99.90;;;;;;5018860;28;20167;-69
2023/08/01 11:09:20;;;;;;;4.70;1.95;;;19.30;99.90;;;;;;5018892;28;20030;-69
2023/08/01 11:11:48;;;;;;;4.03;1.80;;;19.70;99.90;;;;;;5019524;28;20025;-69
2023/08/01 11:14:14;;;;;;;4.18;2.08;;;20.80;99.90;;;;;;5018949;28;20037;-69
2023/08/01 11:16:40;;;;;;;4.38;2.03;;;21.70;99.90;;;;;;5018765;28;20029;-69
2023/08/01 11:19:06;;;;;;;3.72;2.38;;;22.20;99.90;;;;;;5033176;22;20034;-70
2023/08/01 11:21:35;;;;;;;3.00;1.58;;;23.00;99.90;;;;;;5019036;28;20026;-70
2023/08/01 11:24:06;;;;;;;3.05;2.08;;;23.70;99.90;;;;;;5018890;28;20117;-70
2023/08/01 11:26:32;;;;;;;3.47;1.88;;;24.10;99.90;;;;;;5018731;28;20029;-70
2023/08/01 11:29:02;;;;;;;4.20;2.05;;;24.60;99.90;;;;;;5018546;28;20022;-70
2023/08/01 11:31:28;;;;;;;2.40;1.75;;;24.80;99.90;;;;;;5018374;28;20030;-70
2023/08/01 11:33:58;;;;;;;3.75;1.92;;;24.60;99.90;;;;;;5019302;28;20022;-70
2023/08/01 11:36:28;;;;;;;2.70;1.90;;;24.10;99.90;;;;;;5018750;28;20021;-70
2023/08/01 11:38:57;;;;;;;5.20;2.13;;;23.40;99.90;;;;;;5019264;28;20018;-70
2023/08/01 11:41:23;;;;;;;5.20;2.25;;;22.90;99.90;;;;;;5018759;28;20029;-69
2023/08/01 11:43:50;;;;;;;3.38;2.22;;;22.20;99.90;;;;;;5018319;28;20022;-69
2023/08/01 11:46:16;;;;;;;3.50;2.22;;;22.20;99.90;;;;;;5018590;28;20088;-69
2023/08/01 11:48:46;;;;;;;5.53;2.72;;;22.70;99.90;;;;;;5019005;28;20041;-69
2023/08/01 11:51:12;;;;;;;5.15;2.13;;;23.50;99.90;;;;;;5019020;28;20025;-70
2023/08/01 11:53:38;;;;;;;3.83;2.00;;;24.30;99.90;;;;;;5018394;28;20033;-70
2023/08/01 11:56:07;;;;;;;3.15;2.15;;;24.60;99.90;;;;;;5018915;28;20018;-70
2023/08/01 11:58:40;;;;;;;4.43;2.42;;;24.40;99.90;;;;;;5017823;28;20109;-70
2023/08/01 12:01:13;;;;;;;4.15;2.13;;;23.70;99.90;;;;;;5017307;28;20049;-70
2023/08/01 12:03:49;;;;;;;5.00;2.58;;;23.00;99.90;;;;;;5018245;28;20121;-70
2023/08/01 12:06:16;;;;;;;3.40;1.80;;;22.60;99.90;;;;;;5018842;28;20026;-70
2023/08/01 12:08:44;;;;;;;3.08;1.70;;;22.40;99.90;;;;;;5018478;28;20026;-70
2023/08/01 12:11:21;;;;;;;3.28;1.90;;;22.50;99.90;;;;;;5018777;28;20030;-70
2023/08/01 12:13:48;;;;;;;2.55;1.35;;;23.20;99.90;;;;;;5017940;28;20041;-70
2023/08/01 12:16:17;;;;;;;2.15;1.40;;;23.40;99.90;;;;;;5018651;28;20023;-70
2023/08/01 12:18:44;;;;;;;2.75;1.33;;;23.10;99.90;;;;;;5017627;28;20036;-70
2023/08/01 12:21:10;;;;;;;2.85;1.50;;;22.80;99.90;;;;;;5017898;28;20026;-70
2023/08/01 12:23:36;;;;;;;2.70;1.70;;;22.50;99.90;;;;;;5017586;28;20037;-69
2023/08/01 12:26:01;;;;;;;3.67;1.55;;;22.20;99.90;;;;;;5017731;28;20062;-70
2023/08/01 12:28:27;;;;;;;3.83;2.00;;;22.00;99.90;;;;;;5017431;28;20026;-70
2023/08/01 12:30:53;;;;;;;5.55;2.53;;;21.90;99.90;;;;;;5018560;28;20030;-70
2023/08/01 12:33:18;;;;;;;2.95;1.35;;;21.80;99.90;;;;;;5018620;28;20017;-70
2023/08/01 12:35:44;;;;;;;3.35;1.92;;;21.70;99.90;;;;;;5018354;28;20036;-69
2023/08/01 12:38:10;;;;;;;4.80;2.20;;;21.80;99.90;;;;;;5017487;28;20026;-69
2023/08/01 12:40:36;;;;;;;2.88;1.65;;;21.90;99.90;;;;;;5017538;28;20025;-70
2023/08/01 12:43:01;;;;;;;3.13;1.40;;;22.70;99.90;;;;;;5017215;28;20029;-70